^^
Grace C. Lehan Memorial Weather Station Historical Data
Daily Summary for July 25, 2021 Units:  Both    English   Metric
Daily Weekly Monthly Yearly
  High: Low: Average:
Temperature: 79.8 °F /  26.6 °C 67.3 °F /  19.6 °C 72.3 °F /  22.4 °C
Dew Point: 72.9 °F /  22.7 °C 63.8 °F /  17.7 °C 68.2 °F /  20.1 °C
Humidity: 92.1% 78% 87%
Wind Speed: 1.9mph /  3.1km/h - 0.1mph /  0.2km/h
Wind Gust: 11mph /  17.7km/h - -
Wind- - SW
Pressure: 29.98 in /  1015.1 hPa 29.79 in /  1008.7 hPa -
Precipitation: 0.10 in /  2.54 mm    
 
 
Tabular Data for July 25, 2021
Time Temperature Dew Point Pressure Wind Wind Speed Wind Gust Humidity Rainfall Rate (Hourly) solar
00:04 70.8 °F /  21.6 °C 64.3 °F /  17.9 °C 29.98in /  1015.1hPa Calm     80% 0.00in /  0mm 0 W/m2
00:09 70.7 °F /  21.5 °C 64.2 °F /  17.9 °C 29.98in /  1015.1hPa Calm     80% 0.00in /  0mm 0 W/m2
00:14 70.7 °F /  21.5 °C 64.3 °F /  17.9 °C 29.98in /  1015.1hPa Calm     80.2% 0.00in /  0mm 0 W/m2
00:19 70.6 °F /  21.4 °C 64.1 °F /  17.8 °C 29.98in /  1015.1hPa Calm     80% 0.00in /  0mm 0 W/m2
00:24 70.4 °F /  21.3 °C 64.1 °F /  17.8 °C 29.98in /  1015.1hPa Calm     80.3% 0.00in /  0mm 0 W/m2
00:29 70.4 °F /  21.3 °C 64.3 °F /  17.9 °C 29.98in /  1015.1hPa Calm     81% 0.00in /  0mm 0 W/m2
00:34 70.3 °F /  21.3 °C 64.2 °F /  17.9 °C 29.98in /  1015.1hPa Calm     81% 0.00in /  0mm 0 W/m2
00:39 70.1 °F /  21.2 °C 64 °F /  17.8 °C 29.98in /  1015.1hPa Calm     81% 0.00in /  0mm 0 W/m2
00:44 70 °F /  21.1 °C 64.2 °F /  17.9 °C 29.98in /  1015.1hPa Calm     81.8% 0.00in /  0mm 0 W/m2
00:49 69.9 °F /  21.1 °C 64.1 °F /  17.8 °C 29.98in /  1015.1hPa Calm     82% 0.00in /  0mm 0 W/m2
00:54 69.7 °F /  20.9 °C 64 °F /  17.8 °C 29.98in /  1015.1hPa Calm     82% 0.00in /  0mm 0 W/m2
00:59 69.6 °F /  20.9 °C 63.9 °F /  17.7 °C 29.98in /  1015.1hPa Calm     82% 0.00in /  0mm 0 W/m2
01:04 69.5 °F /  20.8 °C 63.8 °F /  17.7 °C 29.98in /  1015.1hPa Calm     82% 0.00in /  0mm 0 W/m2
01:09 69.5 °F /  20.8 °C 64 °F /  17.8 °C 29.98in /  1015.1hPa Calm     82.9% 0.00in /  0mm 0 W/m2
01:14 69.4 °F /  20.8 °C 64 °F /  17.8 °C 29.98in /  1015.1hPa Calm     83% 0.00in /  0mm 0 W/m2
01:19 69.4 °F /  20.8 °C 64 °F /  17.8 °C 29.98in /  1015.1hPa Calm     83% 0.00in /  0mm 0 W/m2
01:24 69.3 °F /  20.7 °C 64.3 °F /  17.9 °C 29.98in /  1015.1hPa Calm     84% 0.00in /  0mm 0 W/m2
01:29 69.2 °F /  20.7 °C 64.2 °F /  17.9 °C 29.98in /  1015.1hPa Calm     84% 0.00in /  0mm 0 W/m2
01:34 69.2 °F /  20.7 °C 64.2 °F /  17.9 °C 29.98in /  1015.1hPa Calm     84% 0.00in /  0mm 0 W/m2
01:39 69.1 °F /  20.6 °C 64.2 °F /  17.9 °C 29.98in /  1015.1hPa Calm     84.2% 0.00in /  0mm 0 W/m2
01:44 69.1 °F /  20.6 °C 64.4 °F /  18 °C 29.98in /  1015.1hPa Calm     85% 0.00in /  0mm 0 W/m2
01:49 69.1 °F /  20.6 °C 64.4 °F /  18 °C 29.98in /  1015.1hPa Calm     85% 0.00in /  0mm 0 W/m2
01:54 69.1 °F /  20.6 °C 64.6 °F /  18.1 °C 29.97in /  1014.8hPa Calm     85.7% 0.00in /  0mm 0 W/m2
01:59 69.2 °F /  20.7 °C 64.8 °F /  18.2 °C 29.97in /  1014.8hPa Calm     86% 0.00in /  0mm 0 W/m2
02:04 69.2 °F /  20.7 °C 64.8 °F /  18.2 °C 29.97in /  1014.8hPa Calm     86% 0.00in /  0mm 0 W/m2
02:09 69.2 °F /  20.7 °C 65.2 °F /  18.4 °C 29.97in /  1014.8hPa Calm     86.9% 0.00in /  0mm 0 W/m2
02:14 69.3 °F /  20.7 °C 65.3 °F /  18.5 °C 29.97in /  1014.8hPa Calm     87% 0.00in /  0mm 0 W/m2
02:19 69.4 °F /  20.8 °C 65.3 °F /  18.5 °C 29.96in /  1014.4hPa Calm     87% 0.00in /  0mm 0 W/m2
02:24 69.4 °F /  20.8 °C 65.4 °F /  18.6 °C 29.96in /  1014.4hPa Calm   2mph /  3.2km/h 87% 0.00in /  0mm 0 W/m2
02:29 69.5 °F /  20.8 °C 65.5 °F /  18.6 °C 29.95in /  1014.1hPa Calm   2mph /  3.2km/h 87% 0.00in /  0mm 0 W/m2
02:34 69.5 °F /  20.8 °C 65.5 °F /  18.6 °C 29.95in /  1014.1hPa Calm   2mph /  3.2km/h 87% 0.00in /  0mm 0 W/m2
02:39 69.4 °F /  20.8 °C 65.4 °F /  18.6 °C 29.95in /  1014.1hPa Calm     87% 0.00in /  0mm 0 W/m2
02:44 69.4 °F /  20.8 °C 65.4 °F /  18.6 °C 29.94in /  1013.8hPa Calm     87% 0.00in /  0mm 0 W/m2
02:49 69.3 °F /  20.7 °C 65.3 °F /  18.5 °C 29.94in /  1013.8hPa Calm     87% 0.00in /  0mm 0 W/m2
02:54 69.3 °F /  20.7 °C 65.6 °F /  18.7 °C 29.94in /  1013.8hPa Calm     88% 0.00in /  0mm 0 W/m2
02:59 69.3 °F /  20.7 °C 65.6 °F /  18.7 °C 29.94in /  1013.8hPa Calm     88% 0.00in /  0mm 0 W/m2
03:04 69.3 °F /  20.7 °C 65.6 °F /  18.7 °C 29.94in /  1013.8hPa Calm     88% 0.00in /  0mm 0 W/m2
03:09 69.4 °F /  20.8 °C 65.7 °F /  18.7 °C 29.94in /  1013.8hPa Calm     88% 0.00in /  0mm 0 W/m2
03:14 69.4 °F /  20.8 °C 65.7 °F /  18.7 °C 29.94in /  1013.8hPa Calm     88% 0.00in /  0mm 0 W/m2
03:19 69.4 °F /  20.8 °C 65.7 °F /  18.7 °C 29.94in /  1013.8hPa Calm     88% 0.00in /  0mm 0 W/m2
03:24 69.4 °F /  20.8 °C 65.9 °F /  18.8 °C 29.94in /  1013.8hPa Calm     88.5% 0.00in /  0mm 0 W/m2
03:29 69.4 °F /  20.8 °C 66 °F /  18.9 °C 29.94in /  1013.8hPa Calm     89% 0.00in /  0mm 0 W/m2
03:34 69.5 °F /  20.8 °C 66.1 °F /  18.9 °C 29.94in /  1013.8hPa Calm     89% 0.00in /  0mm 0 W/m2
03:39 69.5 °F /  20.8 °C 66.1 °F /  18.9 °C 29.93in /  1013.4hPa Calm     89% 0.00in /  0mm 0 W/m2
03:44 69.5 °F /  20.8 °C 66.1 °F /  18.9 °C 29.93in /  1013.4hPa Calm     89% 0.00in /  0mm 0 W/m2
03:49 69.5 °F /  20.8 °C 66.1 °F /  18.9 °C 29.93in /  1013.4hPa Calm     89% 0.00in /  0mm 0 W/m2
03:54 69.5 °F /  20.8 °C 66.2 °F /  19 °C 29.93in /  1013.4hPa Calm     89% 0.00in /  0mm 0 W/m2
03:59 69.6 °F /  20.9 °C 66.2 °F /  19 °C 29.93in /  1013.4hPa Calm     89% 0.00in /  0mm 0 W/m2
04:09 69.7 °F /  20.9 °C 66.3 °F /  19.1 °C 29.93in /  1013.4hPa Calm     89% 0.00in /  0mm 0 W/m2
04:14 69.7 °F /  20.9 °C 66.3 °F /  19.1 °C 29.93in /  1013.4hPa Calm     89% 0.00in /  0mm 0 W/m2
04:19 69.8 °F /  21 °C 66.4 °F /  19.1 °C 29.93in /  1013.4hPa Calm     89% 0.00in /  0mm 0 W/m2
04:24 69.8 °F /  21 °C 66.4 °F /  19.1 °C 29.92in /  1013.1hPa Calm     89% 0.00in /  0mm 0 W/m2
04:29 69.9 °F /  21.1 °C 66.5 °F /  19.2 °C 29.92in /  1013.1hPa Calm     89% 0.00in /  0mm 0 W/m2
04:34 70 °F /  21.1 °C 66.6 °F /  19.2 °C 29.92in /  1013.1hPa Calm     89% 0.00in /  0mm 0 W/m2
04:39 70 °F /  21.1 °C 66.6 °F /  19.2 °C 29.92in /  1013.1hPa Calm     89% 0.00in /  0mm 0 W/m2
04:44 70.1 °F /  21.2 °C 66.7 °F /  19.3 °C 29.92in /  1013.1hPa Calm     89% 0.00in /  0mm 0 W/m2
04:49 70.1 °F /  21.2 °C 66.7 °F /  19.3 °C 29.92in /  1013.1hPa Calm     89% 0.00in /  0mm 0 W/m2
04:54 70.2 °F /  21.2 °C 66.9 °F /  19.4 °C 29.93in /  1013.4hPa Calm     89.3% 0.00in /  0mm 0 W/m2
04:59 70.2 °F /  21.2 °C 67.1 °F /  19.5 °C 29.93in /  1013.4hPa Calm     90% 0.00in /  0mm 0 W/m2
05:04 70.2 °F /  21.2 °C 67.2 °F /  19.6 °C 29.93in /  1013.4hPa South 0.3mph /  0.5km/h 4mph /  6.4km/h 90% 0.01in /  0.25mm 0 W/m2
05:09 70.3 °F /  21.3 °C 67.2 °F /  19.6 °C 29.93in /  1013.4hPa SW 0.8mph /  1.3km/h 6mph /  9.7km/h 90% 0.02in /  0.51mm 0 W/m2
05:14 70 °F /  21.1 °C 67 °F /  19.4 °C 29.93in /  1013.4hPa West 1.9mph /  3.1km/h 11mph /  17.7km/h 90% 0.03in /  0.76mm 0 W/m2
05:19 69.8 °F /  21 °C 66.7 °F /  19.3 °C 29.93in /  1013.4hPa WSW 1.8mph /  2.9km/h 11mph /  17.7km/h 90% 0.03in /  0.76mm 0 W/m2
05:24 69.6 °F /  20.9 °C 66.5 °F /  19.2 °C 29.93in /  1013.4hPa WSW 0.4mph /  0.6km/h 11mph /  17.7km/h 90% 0.03in /  0.76mm 0 W/m2
05:29 69.4 °F /  20.8 °C 66.4 °F /  19.1 °C 29.93in /  1013.4hPa Calm   11mph /  17.7km/h 90% 0.03in /  0.76mm 0 W/m2
05:34 69.3 °F /  20.7 °C 66.2 °F /  19 °C 29.92in /  1013.1hPa Calm   11mph /  17.7km/h 90% 0.04in /  1.02mm 0 W/m2
05:39 69 °F /  20.6 °C 66 °F /  18.9 °C 29.92in /  1013.1hPa Calm     89.9% 0.04in /  1.02mm 0 W/m2
05:44 68.7 °F /  20.4 °C 65.3 °F /  18.5 °C 29.92in /  1013.1hPa Calm     89% 0.04in /  1.02mm 0 W/m2
05:49 68.4 °F /  20.2 °C 65 °F /  18.3 °C 29.92in /  1013.1hPa Calm     89% 0.04in /  1.02mm 0 W/m2
05:54 68.2 °F /  20.1 °C 64.8 °F /  18.2 °C 29.92in /  1013.1hPa Calm     89% 0.04in /  1.02mm 0 W/m2
05:59 68.1 °F /  20.1 °C 64.7 °F /  18.2 °C 29.92in /  1013.1hPa Calm     89% 0.04in /  1.02mm 5 W/m2
06:04 68.1 °F /  20.1 °C 64.7 °F /  18.2 °C 29.92in /  1013.1hPa Calm     89% 0.04in /  1.02mm 7 W/m2
06:09 68.1 °F /  20.1 °C 64.7 °F /  18.2 °C 29.92in /  1013.1hPa Calm     89% 0.04in /  1.02mm 7 W/m2
06:14 68.1 °F /  20.1 °C 65 °F /  18.3 °C 29.92in /  1013.1hPa Calm     89.9% 0.04in /  1.02mm 5 W/m2
06:19 68 °F /  20 °C 65 °F /  18.3 °C 29.92in /  1013.1hPa Calm     90% 0.04in /  1.02mm 7 W/m2
06:24 68 °F /  20 °C 65 °F /  18.3 °C 29.92in /  1013.1hPa Calm     90% 0.04in /  1.02mm 11 W/m2
06:29 68 °F /  20 °C 64.9 °F /  18.3 °C 29.92in /  1013.1hPa Calm     90% 0.04in /  1.02mm 11 W/m2
06:34 67.9 °F /  19.9 °C 64.9 °F /  18.3 °C 29.92in /  1013.1hPa Calm     90% 0.04in /  1.02mm 7 W/m2
06:39 68 °F /  20 °C 65.1 °F /  18.4 °C 29.92in /  1013.1hPa Calm     90.5% 0.01in /  0.25mm 7 W/m2
06:44 68 °F /  20 °C 65.3 °F /  18.5 °C 29.92in /  1013.1hPa Calm     91% 0.01in /  0.25mm 5 W/m2
06:49 68 °F /  20 °C 65.3 °F /  18.5 °C 29.92in /  1013.1hPa Calm     91% 0.01in /  0.25mm 7 W/m2
06:54 68 °F /  20 °C 65.3 °F /  18.5 °C 29.92in /  1013.1hPa Calm     91% 0.01in /  0.25mm 9 W/m2
06:59 68 °F /  20 °C 65.3 °F /  18.5 °C 29.92in /  1013.1hPa Calm     91% 0.02in /  0.51mm 12 W/m2
07:04 67.9 °F /  19.9 °C 65.2 °F /  18.4 °C 29.92in /  1013.1hPa Calm     91% 0.02in /  0.51mm 11 W/m2
07:09 67.9 °F /  19.9 °C 65.5 °F /  18.6 °C 29.92in /  1013.1hPa Calm     91.8% 0.01in /  0.25mm 12 W/m2
07:14 68.1 °F /  20.1 °C 65.7 °F /  18.7 °C 29.92in /  1013.1hPa Calm     92% 0.01in /  0.25mm 26 W/m2
07:19 68 °F /  20 °C 65.6 °F /  18.7 °C 29.92in /  1013.1hPa Calm     92% 0.01in /  0.25mm 26 W/m2
07:24 67.9 °F /  19.9 °C 65.5 °F /  18.6 °C 29.92in /  1013.1hPa SW 0.1mph /  0.2km/h 4mph /  6.4km/h 92% 0.01in /  0.25mm 14 W/m2
07:29 67.9 °F /  19.9 °C 65.5 °F /  18.6 °C 29.92in /  1013.1hPa Calm   4mph /  6.4km/h 92% 0.02in /  0.51mm 12 W/m2
07:34 67.9 °F /  19.9 °C 65.5 °F /  18.6 °C 29.92in /  1013.1hPa Calm   4mph /  6.4km/h 92% 0.02in /  0.51mm 16 W/m2
07:39 67.8 °F /  19.9 °C 65.4 °F /  18.6 °C 29.92in /  1013.1hPa WSW 0.2mph /  0.3km/h 3mph /  4.8km/h 92% 0.02in /  0.51mm 18 W/m2
07:44 67.7 °F /  19.8 °C 65.3 °F /  18.5 °C 29.92in /  1013.1hPa Calm   3mph /  4.8km/h 92% 0.02in /  0.51mm 16 W/m2
07:49 67.7 °F /  19.8 °C 65.1 °F /  18.4 °C 29.92in /  1013.1hPa Calm   3mph /  4.8km/h 91.4% 0.02in /  0.51mm 23 W/m2
07:54 67.6 °F /  19.8 °C 64.9 °F /  18.3 °C 29.92in /  1013.1hPa Calm   3mph /  4.8km/h 91.1% 0.02in /  0.51mm 21 W/m2
07:59 67.5 °F /  19.7 °C 64.8 °F /  18.2 °C 29.91in /  1012.8hPa WSW 0.2mph /  0.3km/h 3mph /  4.8km/h 91% 0.02in /  0.51mm 28 W/m2
08:09 67.3 °F /  19.6 °C 64.6 °F /  18.1 °C 29.91in /  1012.8hPa SW 0.1mph /  0.2km/h 3mph /  4.8km/h 91% 0.02in /  0.51mm 33 W/m2
08:14 67.4 °F /  19.7 °C 64.7 °F /  18.2 °C 29.91in /  1012.8hPa Calm   3mph /  4.8km/h 91% 0.02in /  0.51mm 35 W/m2
08:19 67.4 °F /  19.7 °C 64.7 °F /  18.2 °C 29.91in /  1012.8hPa Calm   3mph /  4.8km/h 91% 0.02in /  0.51mm 42 W/m2
08:24 67.4 °F /  19.7 °C 64.7 °F /  18.2 °C 29.91in /  1012.8hPa Calm   3mph /  4.8km/h 91% 0.02in /  0.51mm 42 W/m2
08:29 67.4 °F /  19.7 °C 64.9 °F /  18.3 °C 29.91in /  1012.8hPa Calm   3mph /  4.8km/h 91.6% 0.02in /  0.51mm 33 W/m2
08:34 67.5 °F /  19.7 °C 65.1 °F /  18.4 °C 29.91in /  1012.8hPa Calm   3mph /  4.8km/h 92% 0.02in /  0.51mm 26 W/m2
08:39 67.5 °F /  19.7 °C 65.1 °F /  18.4 °C 29.91in /  1012.8hPa WSW 0.1mph /  0.2km/h 3mph /  4.8km/h 92% 0.01in /  0.25mm 40 W/m2
08:44 67.5 °F /  19.7 °C 65.1 °F /  18.4 °C 29.91in /  1012.8hPa WSW 0.1mph /  0.2km/h 3mph /  4.8km/h 92% 0.01in /  0.25mm 40 W/m2
08:49 67.5 °F /  19.7 °C 65.1 °F /  18.4 °C 29.91in /  1012.8hPa Calm   3mph /  4.8km/h 92% 0.01in /  0.25mm 47 W/m2
08:54 67.6 °F /  19.8 °C 65.2 °F /  18.4 °C 29.91in /  1012.8hPa SW 0.1mph /  0.2km/h 3mph /  4.8km/h 92% 0.01in /  0.25mm 49 W/m2
08:59 67.6 °F /  19.8 °C 65.2 °F /  18.4 °C 29.91in /  1012.8hPa SSW 1.1mph /  1.8km/h 7mph /  11.3km/h 92% 0.01in /  0.25mm 30 W/m2
09:04 67.7 °F /  19.8 °C 65.3 °F /  18.5 °C 29.91in /  1012.8hPa SSW 1.1mph /  1.8km/h 7mph /  11.3km/h 92% 0.01in /  0.25mm 23 W/m2
09:09 67.8 °F /  19.9 °C 65.4 °F /  18.6 °C 29.91in /  1012.8hPa SSE 0.3mph /  0.5km/h 4mph /  6.4km/h 92% 0.02in /  0.51mm 35 W/m2
09:14 67.7 °F /  19.8 °C 65.3 °F /  18.5 °C 29.90in /  1012.4hPa SW 0.8mph /  1.3km/h 6mph /  9.7km/h 92% 0.02in /  0.51mm 42 W/m2
09:19 67.7 °F /  19.8 °C 65.1 °F /  18.4 °C 29.91in /  1012.8hPa SW 0.9mph /  1.4km/h 6mph /  9.7km/h 91.3% 0.02in /  0.51mm 23 W/m2
09:24 67.7 °F /  19.8 °C 65.2 °F /  18.4 °C 29.91in /  1012.8hPa SW 0.6mph /  1km/h 6mph /  9.7km/h 91.6% 0.02in /  0.51mm 28 W/m2
09:29 67.6 °F /  19.8 °C 64.9 °F /  18.3 °C 29.90in /  1012.4hPa SSW 0.8mph /  1.3km/h 6mph /  9.7km/h 91.1% 0.03in /  0.76mm 28 W/m2
09:34 67.6 °F /  19.8 °C 64.9 °F /  18.3 °C 29.90in /  1012.4hPa SSW 0.8mph /  1.3km/h 8mph /  12.9km/h 91% 0.04in /  1.02mm 40 W/m2
09:39 67.6 °F /  19.8 °C 65 °F /  18.3 °C 29.90in /  1012.4hPa Calm   8mph /  12.9km/h 91.4% 0.04in /  1.02mm 49 W/m2
09:44 67.5 °F /  19.7 °C 65.1 °F /  18.4 °C 29.90in /  1012.4hPa WSW 0.5mph /  0.8km/h 8mph /  12.9km/h 92% 0.04in /  1.02mm 49 W/m2
09:49 67.5 °F /  19.7 °C 65.1 °F /  18.4 °C 29.90in /  1012.4hPa South 1.1mph /  1.8km/h 8mph /  12.9km/h 92% 0.04in /  1.02mm 141 W/m2
09:54 67.5 °F /  19.7 °C 65.1 °F /  18.4 °C 29.89in /  1012.1hPa SSW 1.1mph /  1.8km/h 8mph /  12.9km/h 92% 0.04in /  1.02mm 130 W/m2
09:59 67.6 °F /  19.8 °C 65.2 °F /  18.4 °C 29.89in /  1012.1hPa SSW 1.5mph /  2.4km/h 8mph /  12.9km/h 92% 0.04in /  1.02mm 88 W/m2
10:04 67.6 °F /  19.8 °C 65.2 °F /  18.4 °C 29.89in /  1012.1hPa SSW 0.9mph /  1.4km/h 8mph /  12.9km/h 92% 0.04in /  1.02mm 102 W/m2
10:09 67.7 °F /  19.8 °C 65.3 °F /  18.5 °C 29.89in /  1012.1hPa SW 1mph /  1.6km/h 5mph /  8km/h 92% 0.03in /  0.76mm 114 W/m2
10:14 68 °F /  20 °C 65.6 °F /  18.7 °C 29.89in /  1012.1hPa SW 0.9mph /  1.4km/h 5mph /  8km/h 92% 0.03in /  0.76mm 230 W/m2
10:19 68.3 °F /  20.2 °C 65.9 °F /  18.8 °C 29.89in /  1012.1hPa South 1.1mph /  1.8km/h 5mph /  8km/h 92.1% 0.03in /  0.76mm 274 W/m2
10:24 68.6 °F /  20.3 °C 66.2 °F /  19 °C 29.90in /  1012.4hPa South 1.2mph /  1.9km/h 6mph /  9.7km/h 92% 0.03in /  0.76mm 181 W/m2
10:29 68.9 °F /  20.5 °C 66.3 °F /  19.1 °C 29.90in /  1012.4hPa SW 1.3mph /  2.1km/h 6mph /  9.7km/h 91.5% 0.03in /  0.76mm 156 W/m2
10:34 69.1 °F /  20.6 °C 66.3 °F /  19.1 °C 29.91in /  1012.8hPa SW 0.2mph /  0.3km/h 6mph /  9.7km/h 91% 0.03in /  0.76mm 79 W/m2
10:39 69.2 °F /  20.7 °C 66.3 °F /  19.1 °C 29.90in /  1012.4hPa SW 0.6mph /  1km/h 3mph /  4.8km/h 90.4% 0.01in /  0.25mm 83 W/m2
10:44 69.2 °F /  20.7 °C 66.1 °F /  18.9 °C 29.90in /  1012.4hPa SW 0.1mph /  0.2km/h 3mph /  4.8km/h 90% 0.01in /  0.25mm 77 W/m2
10:49 69.2 °F /  20.7 °C 66.2 °F /  19 °C 29.91in /  1012.8hPa SW 0.3mph /  0.5km/h 4mph /  6.4km/h 90% 0.01in /  0.25mm 77 W/m2
10:54 69.3 °F /  20.7 °C 66.3 °F /  19.1 °C 29.91in /  1012.8hPa SW 0.1mph /  0.2km/h 4mph /  6.4km/h 90% 0.01in /  0.25mm 60 W/m2
10:59 69.3 °F /  20.7 °C 66.3 °F /  19.1 °C 29.91in /  1012.8hPa Calm   4mph /  6.4km/h 90% 0.01in /  0.25mm 56 W/m2
11:04 69.3 °F /  20.7 °C 65.9 °F /  18.8 °C 29.91in /  1012.8hPa Calm   4mph /  6.4km/h 89.2% 0.01in /  0.25mm 70 W/m2
11:09 69.2 °F /  20.7 °C 66 °F /  18.9 °C 29.91in /  1012.8hPa SW 0.1mph /  0.2km/h 2mph /  3.2km/h 89.5% 0.00in /  0mm 72 W/m2
11:14 69.1 °F /  20.6 °C 65.8 °F /  18.8 °C 29.90in /  1012.4hPa Calm   2mph /  3.2km/h 89% 0.00in /  0mm 69 W/m2
11:19 69.1 °F /  20.6 °C 65.7 °F /  18.7 °C 29.90in /  1012.4hPa Calm   2mph /  3.2km/h 89% 0.00in /  0mm 76 W/m2
11:24 69.1 °F /  20.6 °C 65.8 °F /  18.8 °C 29.90in /  1012.4hPa Calm   2mph /  3.2km/h 89% 0.00in /  0mm 79 W/m2
11:29 69.3 °F /  20.7 °C 66.1 °F /  18.9 °C 29.90in /  1012.4hPa SW 0.1mph /  0.2km/h 2mph /  3.2km/h 89.7% 0.00in /  0mm 67 W/m2
11:34 69.3 °F /  20.7 °C 66 °F /  18.9 °C 29.90in /  1012.4hPa Calm   2mph /  3.2km/h 89% 0.00in /  0mm 65 W/m2
11:39 69.4 °F /  20.8 °C 66 °F /  18.9 °C 29.90in /  1012.4hPa Calm   1mph /  1.6km/h 89% 0.00in /  0mm 58 W/m2
11:44 69.5 °F /  20.8 °C 66.1 °F /  18.9 °C 29.90in /  1012.4hPa SW 0.1mph /  0.2km/h 4mph /  6.4km/h 89% 0.00in /  0mm 58 W/m2
11:49 69.5 °F /  20.8 °C 66.1 °F /  18.9 °C 29.90in /  1012.4hPa Calm   4mph /  6.4km/h 89% 0.00in /  0mm 53 W/m2
11:54 69.6 °F /  20.9 °C 66.2 °F /  19 °C 29.90in /  1012.4hPa Calm   4mph /  6.4km/h 89% 0.00in /  0mm 40 W/m2
11:59 69.7 °F /  20.9 °C 66.3 °F /  19.1 °C 29.90in /  1012.4hPa Calm   4mph /  6.4km/h 89% 0.00in /  0mm 47 W/m2
12:00 69.7 °F /  20.9 °C 66.3 °F /  19.1 °C 29.89in /  1012.1hPa Calm   4mph /  6.4km/h 89% 0.00in /  0mm 44 W/m2
12:09 69.7 °F /  20.9 °C 66.4 °F /  19.1 °C 29.89in /  1012.1hPa SW 0.2mph /  0.3km/h 3mph /  4.8km/h 89% 0.00in /  0mm 54 W/m2
12:14 69.8 °F /  21 °C 66.4 °F /  19.1 °C 29.89in /  1012.1hPa Calm   3mph /  4.8km/h 89% 0.00in /  0mm 69 W/m2
12:19 69.9 °F /  21.1 °C 66.5 °F /  19.2 °C 29.89in /  1012.1hPa SSW 0.5mph /  0.8km/h 5mph /  8km/h 89% 0.00in /  0mm 128 W/m2
12:24 70 °F /  21.1 °C 66.6 °F /  19.2 °C 29.88in /  1011.7hPa SSW 0.1mph /  0.2km/h 5mph /  8km/h 89% 0.00in /  0mm 193 W/m2
12:29 70.2 °F /  21.2 °C 66.9 °F /  19.4 °C 29.88in /  1011.7hPa South 0.1mph /  0.2km/h 5mph /  8km/h 89% 0.00in /  0mm 160 W/m2
12:34 70.5 °F /  21.4 °C 67.2 °F /  19.6 °C 29.88in /  1011.7hPa Calm   5mph /  8km/h 89.1% 0.00in /  0mm 207 W/m2
12:39 70.8 °F /  21.6 °C 67.4 °F /  19.7 °C 29.88in /  1011.7hPa SSW 0.7mph /  1.1km/h 3mph /  4.8km/h 89% 0.00in /  0mm 207 W/m2
12:44 71 °F /  21.7 °C 67.3 °F /  19.6 °C 29.88in /  1011.7hPa Calm   3mph /  4.8km/h 88% 0.00in /  0mm 195 W/m2
12:49 71.3 °F /  21.8 °C 67.5 °F /  19.7 °C 29.88in /  1011.7hPa Calm   3mph /  4.8km/h 88% 0.00in /  0mm 183 W/m2
12:54 71.5 °F /  21.9 °C 67.8 °F /  19.9 °C 29.87in /  1011.4hPa SSW 0.1mph /  0.2km/h 4mph /  6.4km/h 88% 0.00in /  0mm 156 W/m2
12:59 71.7 °F /  22.1 °C 68 °F /  20 °C 29.88in /  1011.7hPa SSW 0.1mph /  0.2km/h 4mph /  6.4km/h 88% 0.00in /  0mm 190 W/m2
13:04 71.9 °F /  22.2 °C 68.2 °F /  20.1 °C 29.88in /  1011.7hPa SSW 0.3mph /  0.5km/h 4mph /  6.4km/h 88% 0.00in /  0mm 223 W/m2
13:09 72.1 °F /  22.3 °C 68.2 °F /  20.1 °C 29.87in /  1011.4hPa Calm   4mph /  6.4km/h 87.7% 0.00in /  0mm 223 W/m2
13:14 72.4 °F /  22.4 °C 68.3 °F /  20.2 °C 29.87in /  1011.4hPa SW 0.2mph /  0.3km/h 4mph /  6.4km/h 87.1% 0.00in /  0mm 281 W/m2
13:19 72.6 °F /  22.6 °C 68.6 °F /  20.3 °C 29.87in /  1011.4hPa SSW 0.1mph /  0.2km/h 4mph /  6.4km/h 87% 0.00in /  0mm 230 W/m2
13:24 72.9 °F /  22.7 °C 68.7 °F /  20.4 °C 29.86in /  1011.1hPa South 0.7mph /  1.1km/h 6mph /  9.7km/h 86.8% 0.00in /  0mm 267 W/m2
13:29 73.1 °F /  22.8 °C 68.8 °F /  20.4 °C 29.86in /  1011.1hPa SW 0.2mph /  0.3km/h 6mph /  9.7km/h 86.4% 0.00in /  0mm 299 W/m2
13:34 73.3 °F /  22.9 °C 69.2 °F /  20.7 °C 29.86in /  1011.1hPa WSW 1.1mph /  1.8km/h 9mph /  14.5km/h 86.9% 0.00in /  0mm 204 W/m2
13:39 73.5 °F /  23.1 °C 69 °F /  20.6 °C 29.86in /  1011.1hPa South 1.3mph /  2.1km/h 10mph /  16.1km/h 86% 0.00in /  0mm 202 W/m2
13:44 73.5 °F /  23.1 °C 69 °F /  20.6 °C 29.86in /  1011.1hPa South 0.1mph /  0.2km/h 10mph /  16.1km/h 85.7% 0.00in /  0mm 325 W/m2
13:49 73.7 °F /  23.2 °C 69.3 °F /  20.7 °C 29.86in /  1011.1hPa South 0.4mph /  0.6km/h 10mph /  16.1km/h 86.2% 0.00in /  0mm 313 W/m2
13:54 73.9 °F /  23.3 °C 69.5 °F /  20.8 °C 29.86in /  1011.1hPa SW 0.4mph /  0.6km/h 10mph /  16.1km/h 86.2% 0.00in /  0mm 248 W/m2
13:59 74 °F /  23.3 °C 69.6 °F /  20.9 °C 29.86in /  1011.1hPa Calm   10mph /  16.1km/h 86% 0.00in /  0mm 195 W/m2
14:04 74.1 °F /  23.4 °C 69.7 °F /  20.9 °C 29.86in /  1011.1hPa South 0.4mph /  0.6km/h 10mph /  16.1km/h 86% 0.00in /  0mm 165 W/m2
14:09 74.2 °F /  23.4 °C 69.7 °F /  20.9 °C 29.86in /  1011.1hPa South 0.1mph /  0.2km/h 2mph /  3.2km/h 86% 0.00in /  0mm 128 W/m2
14:14 74.3 °F /  23.5 °C 70 °F /  21.1 °C 29.86in /  1011.1hPa SW 1mph /  1.6km/h 6mph /  9.7km/h 86.3% 0.00in /  0mm 151 W/m2
14:19 74.4 °F /  23.6 °C 70 °F /  21.1 °C 29.86in /  1011.1hPa SW 0.9mph /  1.4km/h 6mph /  9.7km/h 86% 0.00in /  0mm 160 W/m2
14:24 74.5 °F /  23.6 °C 70.1 °F /  21.2 °C 29.86in /  1011.1hPa WSW 0.6mph /  1km/h 7mph /  11.3km/h 86% 0.00in /  0mm 160 W/m2
14:29 74.6 °F /  23.7 °C 70.3 °F /  21.3 °C 29.86in /  1011.1hPa Calm   7mph /  11.3km/h 86.4% 0.00in /  0mm 172 W/m2
14:34 74.8 °F /  23.8 °C 70.6 °F /  21.4 °C 29.85in /  1010.7hPa SW 0.5mph /  0.8km/h 7mph /  11.3km/h 86.7% 0.00in /  0mm 172 W/m2
14:39 74.9 °F /  23.8 °C 70.6 °F /  21.4 °C 29.85in /  1010.7hPa SW 0.8mph /  1.3km/h 6mph /  9.7km/h 86.6% 0.00in /  0mm 128 W/m2
14:44 75 °F /  23.9 °C 70.5 °F /  21.4 °C 29.85in /  1010.7hPa SSW 0.7mph /  1.1km/h 6mph /  9.7km/h 86% 0.00in /  0mm 137 W/m2
14:49 75 °F /  23.9 °C 70.6 °F /  21.4 °C 29.85in /  1010.7hPa SW 0.5mph /  0.8km/h 6mph /  9.7km/h 86% 0.00in /  0mm 178 W/m2
14:54 75.1 °F /  23.9 °C 70.7 °F /  21.5 °C 29.85in /  1010.7hPa WSW 0.9mph /  1.4km/h 6mph /  9.7km/h 86% 0.00in /  0mm 197 W/m2
14:59 75.3 °F /  24.1 °C 70.8 °F /  21.6 °C 29.85in /  1010.7hPa West 0.1mph /  0.2km/h 6mph /  9.7km/h 86% 0.00in /  0mm 178 W/m2
15:04 75.3 °F /  24.1 °C 70.9 °F /  21.6 °C 29.85in /  1010.7hPa West 0.3mph /  0.5km/h 6mph /  9.7km/h 86% 0.00in /  0mm 260 W/m2
15:09 75.6 °F /  24.2 °C 71.3 °F /  21.8 °C 29.85in /  1010.7hPa West 0.1mph /  0.2km/h 4mph /  6.4km/h 86.6% 0.00in /  0mm 315 W/m2
15:14 75.9 °F /  24.4 °C 71.7 °F /  22.1 °C 29.84in /  1010.4hPa West 0.4mph /  0.6km/h 6mph /  9.7km/h 86.8% 0.00in /  0mm 411 W/m2
15:19 76.4 °F /  24.7 °C 72 °F /  22.2 °C 29.84in /  1010.4hPa WSW 0.3mph /  0.5km/h 6mph /  9.7km/h 86.3% 0.00in /  0mm 411 W/m2
15:24 76.9 °F /  24.9 °C 72.1 °F /  22.3 °C 29.84in /  1010.4hPa WSW 0.1mph /  0.2km/h 6mph /  9.7km/h 85.3% 0.00in /  0mm 378 W/m2
15:29 77.2 °F /  25.1 °C 71.7 °F /  22.1 °C 29.84in /  1010.4hPa SW 0.3mph /  0.5km/h 6mph /  9.7km/h 83.2% 0.00in /  0mm 378 W/m2
15:34 77.3 °F /  25.2 °C 71.5 °F /  21.9 °C 29.84in /  1010.4hPa SW 0.2mph /  0.3km/h 6mph /  9.7km/h 82.4% 0.00in /  0mm 316 W/m2
15:39 77.4 °F /  25.2 °C 71.4 °F /  21.9 °C 29.84in /  1010.4hPa Calm   3mph /  4.8km/h 82% 0.00in /  0mm 325 W/m2
15:44 77.5 °F /  25.3 °C 71.7 °F /  22.1 °C 29.84in /  1010.4hPa SW 0.1mph /  0.2km/h 3mph /  4.8km/h 82.4% 0.00in /  0mm 207 W/m2
15:49 77.6 °F /  25.3 °C 71.7 °F /  22.1 °C 29.84in /  1010.4hPa Calm   3mph /  4.8km/h 82.3% 0.00in /  0mm 158 W/m2
15:54 77.6 °F /  25.3 °C 71.8 °F /  22.1 °C 29.83in /  1010hPa Calm   3mph /  4.8km/h 82.4% 0.00in /  0mm 91 W/m2
15:59 77.6 °F /  25.3 °C 71.9 °F /  22.2 °C 29.83in /  1010hPa Calm   3mph /  4.8km/h 82.6% 0.00in /  0mm 90 W/m2
16:00 77.6 °F /  25.3 °C 72 °F /  22.2 °C 29.83in /  1010hPa Calm   3mph /  4.8km/h 83% 0.00in /  0mm 88 W/m2
16:09 77.6 °F /  25.3 °C 71.9 °F /  22.2 °C 29.83in /  1010hPa Calm     82.7% 0.00in /  0mm 130 W/m2
16:14 77.5 °F /  25.3 °C 71.6 °F /  22 °C 29.83in /  1010hPa Calm     82% 0.00in /  0mm 200 W/m2
16:19 77.6 °F /  25.3 °C 71.9 °F /  22.2 °C 29.83in /  1010hPa Calm   2mph /  3.2km/h 82.6% 0.00in /  0mm 255 W/m2
16:24 77.8 °F /  25.4 °C 71.9 °F /  22.2 °C 29.83in /  1010hPa SW 0.1mph /  0.2km/h 2mph /  3.2km/h 82.1% 0.00in /  0mm 206 W/m2
16:29 78 °F /  25.6 °C 72.1 °F /  22.3 °C 29.83in /  1010hPa SW 0.1mph /  0.2km/h 2mph /  3.2km/h 82% 0.00in /  0mm 179 W/m2
16:34 78.3 °F /  25.7 °C 72.2 °F /  22.3 °C 29.83in /  1010hPa SW 0.5mph /  0.8km/h 6mph /  9.7km/h 81.6% 0.00in /  0mm 257 W/m2
16:39 78.6 °F /  25.9 °C 72.3 °F /  22.4 °C 29.83in /  1010hPa SW 0.4mph /  0.6km/h 6mph /  9.7km/h 81% 0.00in /  0mm 264 W/m2
16:44 79 °F /  26.1 °C 72.5 °F /  22.5 °C 29.83in /  1010hPa SW 0.2mph /  0.3km/h 6mph /  9.7km/h 80.5% 0.00in /  0mm 244 W/m2
16:49 79.3 °F /  26.3 °C 72.6 °F /  22.6 °C 29.83in /  1010hPa SW 0.6mph /  1km/h 6mph /  9.7km/h 80% 0.00in /  0mm 221 W/m2
16:54 79.5 °F /  26.4 °C 72.8 °F /  22.7 °C 29.82in /  1009.7hPa SW 0.1mph /  0.2km/h 6mph /  9.7km/h 80% 0.00in /  0mm 190 W/m2
16:59 79.6 °F /  26.4 °C 72.9 °F /  22.7 °C 29.82in /  1009.7hPa Calm   6mph /  9.7km/h 80% 0.00in /  0mm 190 W/m2
17:04 79.6 °F /  26.4 °C 72.9 °F /  22.7 °C 29.82in /  1009.7hPa Calm   6mph /  9.7km/h 80% 0.00in /  0mm 181 W/m2
17:09 79.6 °F /  26.4 °C 72.6 °F /  22.6 °C 29.82in /  1009.7hPa Calm   1mph /  1.6km/h 79.3% 0.00in /  0mm 165 W/m2
17:14 79.5 °F /  26.4 °C 72.4 °F /  22.4 °C 29.82in /  1009.7hPa Calm   1mph /  1.6km/h 79% 0.00in /  0mm 190 W/m2
17:19 79.5 °F /  26.4 °C 72.6 °F /  22.6 °C 29.81in /  1009.4hPa Calm   1mph /  1.6km/h 79.6% 0.00in /  0mm 104 W/m2
17:24 79.5 °F /  26.4 °C 72.7 °F /  22.6 °C 29.81in /  1009.4hPa Calm   1mph /  1.6km/h 79.9% 0.00in /  0mm 130 W/m2
17:29 79.5 °F /  26.4 °C 72.4 °F /  22.4 °C 29.81in /  1009.4hPa SW 0.1mph /  0.2km/h 2mph /  3.2km/h 79% 0.00in /  0mm 156 W/m2
17:34 79.6 °F /  26.4 °C 72.2 °F /  22.3 °C 29.81in /  1009.4hPa Calm   2mph /  3.2km/h 78.2% 0.00in /  0mm 158 W/m2
17:39 79.7 °F /  26.5 °C 72.2 °F /  22.3 °C 29.81in /  1009.4hPa SW 0.1mph /  0.2km/h 3mph /  4.8km/h 78% 0.00in /  0mm 111 W/m2
17:44 79.8 °F /  26.6 °C 72.6 °F /  22.6 °C 29.81in /  1009.4hPa Calm   3mph /  4.8km/h 78.9% 0.00in /  0mm 111 W/m2
17:49 79.7 °F /  26.5 °C 72.3 °F /  22.4 °C 29.81in /  1009.4hPa Calm   3mph /  4.8km/h 78% 0.00in /  0mm 118 W/m2
17:54 79.6 °F /  26.4 °C 72.5 °F /  22.5 °C 29.81in /  1009.4hPa Calm   3mph /  4.8km/h 78.8% 0.00in /  0mm 93 W/m2
17:59 79.6 °F /  26.4 °C 72.5 °F /  22.5 °C 29.81in /  1009.4hPa Calm   3mph /  4.8km/h 79% 0.00in /  0mm 105 W/m2
18:04 79.5 °F /  26.4 °C 72.4 °F /  22.4 °C 29.80in /  1009hPa Calm   3mph /  4.8km/h 79% 0.00in /  0mm 69 W/m2
18:09 79.5 °F /  26.4 °C 72.5 °F /  22.5 °C 29.80in /  1009hPa Calm   1mph /  1.6km/h 79.3% 0.00in /  0mm 60 W/m2
18:14 79.4 °F /  26.3 °C 72.7 °F /  22.6 °C 29.80in /  1009hPa Calm   1mph /  1.6km/h 80% 0.00in /  0mm 56 W/m2
18:19 79.4 °F /  26.3 °C 72.7 °F /  22.6 °C 29.81in /  1009.4hPa Calm   1mph /  1.6km/h 80% 0.00in /  0mm 51 W/m2
18:24 79.4 °F /  26.3 °C 72.7 °F /  22.6 °C 29.81in /  1009.4hPa SW 0.1mph /  0.2km/h 3mph /  4.8km/h 80% 0.00in /  0mm 46 W/m2
18:29 79.2 °F /  26.2 °C 72.5 °F /  22.5 °C 29.80in /  1009hPa Calm   3mph /  4.8km/h 80% 0.00in /  0mm 44 W/m2
18:34 79.2 °F /  26.2 °C 72.7 °F /  22.6 °C 29.80in /  1009hPa SW 0.1mph /  0.2km/h 3mph /  4.8km/h 80.8% 0.00in /  0mm 42 W/m2
18:39 79.1 °F /  26.2 °C 72.6 °F /  22.6 °C 29.80in /  1009hPa Calm   3mph /  4.8km/h 80.5% 0.00in /  0mm 39 W/m2
18:44 79.1 °F /  26.2 °C 72.7 °F /  22.6 °C 29.80in /  1009hPa Calm   3mph /  4.8km/h 81% 0.00in /  0mm 35 W/m2
18:49 79 °F /  26.1 °C 72.7 °F /  22.6 °C 29.80in /  1009hPa Calm   3mph /  4.8km/h 81% 0.00in /  0mm 35 W/m2
18:54 78.9 °F /  26.1 °C 72.6 °F /  22.6 °C 29.80in /  1009hPa Calm   3mph /  4.8km/h 81% 0.00in /  0mm 33 W/m2
18:59 78.9 °F /  26.1 °C 72.6 °F /  22.6 °C 29.80in /  1009hPa SW 0.1mph /  0.2km/h 3mph /  4.8km/h 81% 0.00in /  0mm 33 W/m2
19:04 78.8 °F /  26 °C 72.5 °F /  22.5 °C 29.80in /  1009hPa Calm   3mph /  4.8km/h 81% 0.00in /  0mm 32 W/m2
19:09 78.8 °F /  26 °C 72.5 °F /  22.5 °C 29.80in /  1009hPa Calm     81% 0.00in /  0mm 28 W/m2
19:14 78.7 °F /  25.9 °C 72.4 °F /  22.4 °C 29.79in /  1008.7hPa Calm     81% 0.00in /  0mm 26 W/m2
19:19 78.7 °F /  25.9 °C 72.4 °F /  22.4 °C 29.80in /  1009hPa Calm     81.1% 0.00in /  0mm 23 W/m2
19:24 78.6 °F /  25.9 °C 72.6 °F /  22.6 °C 29.80in /  1009hPa Calm     82% 0.00in /  0mm 21 W/m2
19:29 78.5 °F /  25.8 °C 72.5 °F /  22.5 °C 29.81in /  1009.4hPa Calm     82% 0.00in /  0mm 19 W/m2
19:34 78.4 °F /  25.8 °C 72.4 °F /  22.4 °C 29.81in /  1009.4hPa Calm     82% 0.00in /  0mm 18 W/m2
19:39 78.2 °F /  25.7 °C 72.3 °F /  22.4 °C 29.80in /  1009hPa Calm     82% 0.00in /  0mm 16 W/m2
19:44 78.1 °F /  25.6 °C 72.2 °F /  22.3 °C 29.80in /  1009hPa Calm     82% 0.00in /  0mm 12 W/m2
19:49 78 °F /  25.6 °C 72.3 °F /  22.4 °C 29.81in /  1009.4hPa Calm     82.9% 0.00in /  0mm 11 W/m2
19:54 77.8 °F /  25.4 °C 72.2 °F /  22.3 °C 29.82in /  1009.7hPa Calm     83% 0.00in /  0mm 9 W/m2
19:59 77.7 °F /  25.4 °C 72.1 °F /  22.3 °C 29.82in /  1009.7hPa Calm     83% 0.00in /  0mm 7 W/m2
20:00 77.6 °F /  25.3 °C 72 °F /  22.2 °C 29.82in /  1009.7hPa Calm     83% 0.00in /  0mm 5 W/m2
20:09 77.3 °F /  25.2 °C 72.1 °F /  22.3 °C 29.82in /  1009.7hPa Calm   1mph /  1.6km/h 84% 0.00in /  0mm 0 W/m2
20:14 77.2 °F /  25.1 °C 72 °F /  22.2 °C 29.82in /  1009.7hPa Calm   1mph /  1.6km/h 84% 0.00in /  0mm 0 W/m2
20:19 77 °F /  25 °C 72 °F /  22.2 °C 29.82in /  1009.7hPa Calm   1mph /  1.6km/h 84.5% 0.00in /  0mm 0 W/m2
20:24 76.9 °F /  24.9 °C 72 °F /  22.2 °C 29.82in /  1009.7hPa Calm   1mph /  1.6km/h 85% 0.00in /  0mm 0 W/m2
20:29 76.7 °F /  24.8 °C 71.9 °F /  22.2 °C 29.82in /  1009.7hPa Calm   1mph /  1.6km/h 85% 0.00in /  0mm 0 W/m2
20:34 76.6 °F /  24.8 °C 71.9 °F /  22.2 °C 29.82in /  1009.7hPa Calm   1mph /  1.6km/h 85.4% 0.00in /  0mm 0 W/m2
20:39 76.4 °F /  24.7 °C 71.9 °F /  22.2 °C 29.82in /  1009.7hPa Calm     86% 0.00in /  0mm 0 W/m2
20:44 76.3 °F /  24.6 °C 71.8 °F /  22.1 °C 29.82in /  1009.7hPa Calm     86% 0.00in /  0mm 0 W/m2
20:49 76.1 °F /  24.5 °C 71.6 °F /  22 °C 29.82in /  1009.7hPa Calm     86% 0.00in /  0mm 0 W/m2
20:54 76 °F /  24.4 °C 71.6 °F /  22 °C 29.82in /  1009.7hPa Calm     86.4% 0.00in /  0mm 0 W/m2
20:59 75.8 °F /  24.3 °C 71.7 °F /  22.1 °C 29.83in /  1010hPa Calm     87% 0.00in /  0mm 0 W/m2
21:04 75.7 °F /  24.3 °C 71.6 °F /  22 °C 29.82in /  1009.7hPa Calm     87% 0.00in /  0mm 0 W/m2
21:09 75.6 °F /  24.2 °C 71.5 °F /  21.9 °C 29.82in /  1009.7hPa Calm     87% 0.00in /  0mm 0 W/m2
21:14 75.5 °F /  24.2 °C 71.6 °F /  22 °C 29.83in /  1010hPa Calm     87.7% 0.00in /  0mm 0 W/m2
21:19 75.4 °F /  24.1 °C 71.3 °F /  21.8 °C 29.83in /  1010hPa Calm     87.3% 0.00in /  0mm 0 W/m2
21:24 75.3 °F /  24.1 °C 71.5 °F /  21.9 °C 29.83in /  1010hPa Calm     88% 0.00in /  0mm 0 W/m2
21:29 75.1 °F /  23.9 °C 71.3 °F /  21.8 °C 29.83in /  1010hPa Calm     88% 0.00in /  0mm 0 W/m2
21:34 75 °F /  23.9 °C 71.2 °F /  21.8 °C 29.83in /  1010hPa Calm     88% 0.00in /  0mm 0 W/m2
21:39 74.9 °F /  23.8 °C 71.1 °F /  21.7 °C 29.83in /  1010hPa Calm     88.2% 0.00in /  0mm 0 W/m2
21:44 74.7 °F /  23.7 °C 71.2 °F /  21.8 °C 29.84in /  1010.4hPa Calm     88.8% 0.00in /  0mm 0 W/m2
21:49 74.6 °F /  23.7 °C 71.2 °F /  21.8 °C 29.83in /  1010hPa Calm     89% 0.00in /  0mm 0 W/m2
21:54 74.5 °F /  23.6 °C 71 °F /  21.7 °C 29.83in /  1010hPa Calm     89% 0.00in /  0mm 0 W/m2
21:59 74.4 °F /  23.6 °C 70.9 °F /  21.6 °C 29.83in /  1010hPa Calm     89% 0.00in /  0mm 0 W/m2
22:04 74.3 °F /  23.5 °C 71.1 °F /  21.7 °C 29.83in /  1010hPa Calm     89.6% 0.00in /  0mm 0 W/m2
22:09 74.3 °F /  23.5 °C 71.1 °F /  21.7 °C 29.83in /  1010hPa Calm     90% 0.00in /  0mm 0 W/m2
22:14 74.2 °F /  23.4 °C 71.1 °F /  21.7 °C 29.83in /  1010hPa Calm     90% 0.00in /  0mm 0 W/m2
22:19 74.1 °F /  23.4 °C 71 °F /  21.7 °C 29.83in /  1010hPa Calm     90% 0.00in /  0mm 0 W/m2
22:24 74.1 °F /  23.4 °C 70.9 °F /  21.6 °C 29.82in /  1009.7hPa Calm     90% 0.00in /  0mm 0 W/m2
22:29 74 °F /  23.3 °C 70.9 °F /  21.6 °C 29.82in /  1009.7hPa Calm     90% 0.00in /  0mm 0 W/m2
22:34 74 °F /  23.3 °C 70.8 °F /  21.6 °C 29.82in /  1009.7hPa Calm     90% 0.00in /  0mm 0 W/m2
22:39 73.9 °F /  23.3 °C 70.8 °F /  21.6 °C 29.83in /  1010hPa Calm     90% 0.00in /  0mm 0 W/m2
22:44 73.8 °F /  23.2 °C 70.7 °F /  21.5 °C 29.83in /  1010hPa Calm     90% 0.00in /  0mm 0 W/m2
22:49 73.7 °F /  23.2 °C 70.6 °F /  21.4 °C 29.83in /  1010hPa Calm     90% 0.00in /  0mm 0 W/m2
22:54 73.7 °F /  23.2 °C 70.8 °F /  21.6 °C 29.83in /  1010hPa Calm     90.9% 0.00in /  0mm 0 W/m2
22:59 73.5 °F /  23.1 °C 70.7 °F /  21.5 °C 29.83in /  1010hPa Calm     91% 0.00in /  0mm 0 W/m2
23:04 73.4 °F /  23 °C 70.7 °F /  21.5 °C 29.83in /  1010hPa Calm     91% 0.00in /  0mm 0 W/m2
23:09 73.3 °F /  22.9 °C 70.3 °F /  21.3 °C 29.83in /  1010hPa Calm     90.2% 0.00in /  0mm 0 W/m2
23:14 73.2 °F /  22.9 °C 70.4 °F /  21.3 °C 29.83in /  1010hPa Calm     90.9% 0.00in /  0mm 0 W/m2
23:19 73.1 °F /  22.8 °C 70.3 °F /  21.3 °C 29.83in /  1010hPa Calm     91% 0.00in /  0mm 0 W/m2
23:24 73 °F /  22.8 °C 70.2 °F /  21.2 °C 29.83in /  1010hPa Calm     91% 0.00in /  0mm 0 W/m2
23:29 72.9 °F /  22.7 °C 70.1 °F /  21.2 °C 29.83in /  1010hPa Calm     91% 0.00in /  0mm 0 W/m2
23:34 72.8 °F /  22.7 °C 70 °F /  21.1 °C 29.84in /  1010.4hPa Calm     91% 0.00in /  0mm 0 W/m2
23:39 72.7 °F /  22.6 °C 70 °F /  21.1 °C 29.83in /  1010hPa Calm     91.1% 0.00in /  0mm 0 W/m2
23:44 72.6 °F /  22.6 °C 69.9 °F /  21.1 °C 29.83in /  1010hPa Calm     91.2% 0.00in /  0mm 0 W/m2
23:49 72.6 °F /  22.6 °C 70.1 °F /  21.2 °C 29.83in /  1010hPa Calm     92% 0.00in /  0mm 0 W/m2
23:54 72.5 °F /  22.5 °C 70.1 °F /  21.2 °C 29.83in /  1010hPa Calm     92% 0.00in /  0mm 0 W/m2
23:59 72.5 °F /  22.5 °C 70 °F /  21.1 °C 29.83in /  1010hPa Calm     92% 0.00in /  0mm 0 W/m2
Hartford County Weather
Compliments of Weather Underground - 4 mb